Alabat, Philippines
Current Conditions -  °F | °C
As of 4:00 AM on Thursday 27 Nov 2014 (Local Time) from RPLL Reporting Station
Broken Clouds Broken Clouds  
Wind Chill: 81°   Ceiling: 10000
Heat Index: 86°   Visibility: 6mi
Dew Point: 75°   Wind: 0mph
Humidity: 84%   Direction: NA
Pressure: 29.77"   Gusts: NA
Location:  14.1°N, 122.02°E
Report Text: RPLL 262000Z 00000KT 9999 SCT025 BKN100 27/24 Q1008 NOSIG RMK A2977
Loading
Personal Weather Stations






























Interactive Weather Map New forecast layout! Learn more

10-Day Weather Forecast

Advertisements
Track Severe Weather on mobile